Time;durP1;ratioP1;P1;durP2;ratioP2;P2;SDS_P1;SDS_P2;PMS_P1;PMS_P2;Temp;Humidity;BMP_temperature;BMP_pressure;BME280_temperature;BME280_humidity;BME280_pressure;Samples;Min_cycle;Max_cycle;Signal;HPM_P1;HPM_P2
2022/06/14 00:01:42;;;;;;;19.45;17.85;;;7.30;99.90;;;;;;5030879;28;20084;-73
2022/06/14 00:04:09;;;;;;;19.45;17.95;;;7.20;99.90;;;;;;5011430;28;20041;-73
2022/06/14 00:06:36;;;;;;;20.65;19.00;;;7.20;99.90;;;;;;5027560;28;20301;-73
2022/06/14 00:09:03;;;;;;;20.85;18.75;;;7.20;99.90;;;;;;5024349;28;20114;-72
2022/06/14 00:11:37;;;;;;;20.75;19.15;;;7.10;99.90;;;;;;5020936;28;20041;-73
2022/06/14 00:14:07;;;;;;;21.48;19.38;;;7.10;99.90;;;;;;5032811;28;20053;-72
2022/06/14 00:16:35;;;;;;;19.23;17.73;;;7.10;99.90;;;;;;5027633;28;20053;-72
2022/06/14 00:19:04;;;;;;;18.67;17.27;;;7.10;99.90;;;;;;5045669;28;20045;-72
2022/06/14 00:21:32;;;;;;;26.35;19.30;;;7.00;99.90;;;;;;5018922;28;20547;-73
2022/06/14 00:24:01;;;;;;;20.67;19.17;;;7.00;99.90;;;;;;5046412;28;20345;-73
2022/06/14 00:26:28;;;;;;;20.73;18.83;;;7.00;99.90;;;;;;5033063;28;20524;-72
2022/06/14 00:28:55;;;;;;;19.75;18.35;;;6.90;99.90;;;;;;5001201;28;20129;-73
2022/06/14 00:31:25;;;;;;;21.30;19.23;;;6.80;99.90;;;;;;4992798;28;20041;-72
2022/06/14 00:33:52;;;;;;;19.42;17.83;;;6.70;99.90;;;;;;5026004;28;20297;-72
2022/06/14 00:36:30;;;;;;;20.50;18.83;;;6.80;99.90;;;;;;5025449;28;20111;-72
2022/06/14 00:39:00;;;;;;;24.27;18.35;;;6.90;99.90;;;;;;4988212;28;20049;-72
2022/06/14 00:41:37;;;;;;;19.55;17.95;;;6.90;99.90;;;;;;5034235;28;20045;-73
2022/06/14 00:44:07;;;;;;;19.65;17.88;;;7.00;99.90;;;;;;5027976;28;20048;-73
2022/06/14 00:46:39;;;;;;;19.23;17.63;;;6.90;99.90;;;;;;5022976;28;20114;-71
2022/06/14 00:49:21;;;;;;;19.55;17.73;;;6.90;99.90;;;;;;5008492;28;20046;-73
2022/06/14 00:51:55;;;;;;;19.38;17.58;;;6.80;99.90;;;;;;5020296;28;20045;-73
2022/06/14 00:54:30;;;;;;;18.55;16.70;;;6.70;99.90;;;;;;5024708;28;20089;-71
2022/06/14 00:57:05;;;;;;;19.63;17.85;;;6.60;99.90;;;;;;5026416;28;20467;-73
2022/06/14 00:59:41;;;;;;;19.67;18.17;;;6.50;99.90;;;;;;4996573;28;20049;-73
2022/06/14 01:02:18;;;;;;;19.20;17.58;;;6.40;99.90;;;;;;5004580;28;20046;-73
2022/06/14 01:04:47;;;;;;;18.70;17.13;;;6.40;99.90;;;;;;5004665;28;20197;-72
2022/06/14 01:07:35;;;;;;;20.23;18.48;;;6.30;99.90;;;;;;5013355;28;20087;-72
2022/06/14 01:10:06;;;;;;;19.30;17.77;;;6.20;99.90;;;;;;5014000;28;20099;-72
2022/06/14 01:12:40;;;;;;;19.90;18.27;;;6.30;99.90;;;;;;5014457;28;20096;-72
2022/06/14 01:15:20;;;;;;;20.80;18.60;;;6.40;99.90;;;;;;5025646;28;20195;-72
2022/06/14 01:17:51;;;;;;;19.27;17.70;;;6.30;99.90;;;;;;5045476;28;20603;-72
2022/06/14 01:20:20;;;;;;;19.90;18.08;;;6.40;99.90;;;;;;5025446;28;20080;-72
2022/06/14 01:22:49;;;;;;;20.85;18.63;;;6.30;99.90;;;;;;5006243;28;20042;-72
2022/06/14 01:25:16;;;;;;;19.30;17.52;;;6.20;99.90;;;;;;5008241;28;20165;-73
2022/06/14 01:27:43;;;;;;;19.85;18.05;;;6.30;99.90;;;;;;5018844;28;20256;-72
2022/06/14 01:30:20;;;;;;;19.52;17.92;;;6.20;99.90;;;;;;5031272;28;20403;-72
2022/06/14 01:32:49;;;;;;;19.65;17.88;;;6.20;99.90;;;;;;5007532;28;20045;-72
2022/06/14 01:35:23;;;;;;;19.15;17.40;;;6.30;99.90;;;;;;5006922;28;20061;-73
2022/06/14 01:37:52;;;;;;;19.20;17.60;;;6.00;99.90;;;;;;5024695;28;20057;-72
2022/06/14 01:40:24;;;;;;;18.83;17.30;;;6.00;99.90;;;;;;5006854;28;20049;-72
2022/06/14 01:43:37;;;;;;;18.52;16.88;;;6.10;99.90;;;;;;5040918;28;20106;-72
2022/06/14 01:46:24;;;;;;;19.42;17.40;;;6.00;99.90;;;;;;5051125;28;20609;-74
2022/06/14 01:52:03;;;;;;;23.10;18.60;;;5.90;99.90;;;;;;5040293;28;20053;-74
2022/06/14 01:54:50;;;;;;;18.27;17.08;;;5.90;99.90;;;;;;5039109;28;20073;-72
2022/06/14 01:57:23;;;;;;;24.27;18.10;;;5.90;99.90;;;;;;5038553;28;20087;-73
2022/06/14 02:00:10;;;;;;;19.15;17.23;;;5.90;99.90;;;;;;5038192;28;20048;-72
2022/06/14 02:02:51;;;;;;;19.10;17.45;;;5.90;99.90;;;;;;5026838;28;20049;-73
2022/06/14 02:05:29;;;;;;;20.10;18.27;;;5.90;99.90;;;;;;5059033;28;20135;-74
2022/06/14 02:08:34;;;;;;;19.83;18.05;;;5.80;99.90;;;;;;5043594;28;20045;-73
2022/06/14 02:11:12;;;;;;;19.55;18.13;;;5.70;99.90;;;;;;4975158;28;20042;-72
2022/06/14 02:13:48;;;;;;;19.17;17.38;;;5.80;99.90;;;;;;5020754;28;20053;-72
2022/06/14 02:16:36;;;;;;;20.10;18.17;;;5.80;99.90;;;;;;5044910;28;20146;-72
2022/06/14 02:19:12;;;;;;;19.75;17.92;;;5.80;99.90;;;;;;5059789;28;20792;-72
2022/06/14 02:21:47;;;;;;;18.23;16.83;;;5.90;99.90;;;;;;5046474;28;20048;-73
2022/06/14 02:24:31;;;;;;;19.33;17.17;;;6.00;99.90;;;;;;5043939;28;20048;-72
2022/06/14 02:27:04;;;;;;;18.55;16.80;;;6.00;99.90;;;;;;5025111;28;20384;-73
2022/06/14 02:29:45;;;;;;;18.77;17.08;;;6.00;99.90;;;;;;5025216;28;20095;-72
2022/06/14 02:32:22;;;;;;;17.92;16.25;;;5.90;99.90;;;;;;5038833;28;20100;-71
2022/06/14 02:35:07;;;;;;;17.42;16.15;;;5.80;99.90;;;;;;5044771;28;20056;-73
2022/06/14 02:37:52;;;;;;;19.30;17.35;;;5.70;99.90;;;;;;5019340;28;20531;-73
2022/06/14 02:40:23;;;;;;;;;;;5.90;99.90;;;;;;5019458;28;20536;-72
2022/06/14 02:43:18;;;;;;;18.60;16.73;;;5.80;99.90;;;;;;5023349;28;19928;-72
2022/06/14 02:45:57;;;;;;;18.05;16.75;;;5.80;99.90;;;;;;5016693;28;20107;-72
2022/06/14 02:48:34;;;;;;;18.80;17.02;;;5.70;99.90;;;;;;5024123;28;20057;-73
2022/06/14 02:51:13;;;;;;;19.40;17.42;;;5.50;99.90;;;;;;5023761;28;20049;-72
2022/06/14 02:54:05;;;;;;;18.13;16.73;;;5.70;99.90;;;;;;5023667;28;20053;-73
2022/06/14 02:56:41;;;;;;;22.33;17.48;;;5.60;99.90;;;;;;5023890;28;20092;-71
2022/06/14 02:59:15;;;;;;;18.92;17.40;;;5.50;99.90;;;;;;5009601;28;20103;-73
2022/06/14 03:01:48;;;;;;;18.45;16.73;;;5.50;99.90;;;;;;5015067;28;20049;-73
2022/06/14 03:04:26;;;;;;;19.15;17.25;;;5.60;99.90;;;;;;5023956;28;20140;-71
2022/06/14 03:07:03;;;;;;;18.85;17.30;;;5.70;99.90;;;;;;5041953;28;20052;-73
2022/06/14 03:09:32;;;;;;;18.33;16.60;;;5.60;99.90;;;;;;5038469;28;20515;-72
2022/06/14 03:12:20;;;;;;;18.13;16.50;;;5.80;99.90;;;;;;5019788;28;20036;-71
2022/06/14 03:14:47;;;;;;;18.85;17.02;;;5.80;99.90;;;;;;5009615;28;20518;-72
2022/06/14 03:17:46;;;;;;;16.88;15.48;;;5.70;99.90;;;;;;5022379;28;20560;-72
2022/06/14 03:20:31;;;;;;;17.92;15.57;;;5.70;99.90;;;;;;5006986;28;20046;-73
2022/06/14 03:23:20;;;;;;;18.55;16.80;;;5.70;99.90;;;;;;5014119;28;20492;-72
2022/06/14 03:26:32;;;;;;;17.52;16.27;;;5.70;99.90;;;;;;5028765;28;20144;-72
2022/06/14 03:29:09;;;;;;;18.83;17.35;;;5.70;99.90;;;;;;4928033;28;20051;-72
2022/06/14 03:32:02;;;;;;;19.45;17.13;;;5.70;99.90;;;;;;4965120;28;20488;-72
2022/06/14 03:34:32;;;;;;;18.50;16.70;;;5.70;99.90;;;;;;5012897;28;20053;-71
2022/06/14 03:36:59;;;;;;;18.42;16.80;;;5.70;99.90;;;;;;5033264;28;20138;-72
2022/06/14 03:39:33;;;;;;;18.23;16.52;;;5.70;99.90;;;;;;5014860;28;20049;-72
2022/06/14 03:42:03;;;;;;;17.63;15.70;;;5.70;99.90;;;;;;5034538;28;20076;-71
2022/06/14 03:44:32;;;;;;;19.02;16.92;;;5.80;99.90;;;;;;5045155;28;20049;-71
2022/06/14 03:47:14;;;;;;;18.35;16.70;;;6.00;99.90;;;;;;5025773;28;20111;-73
2022/06/14 03:49:52;;;;;;;17.95;16.15;;;5.90;99.90;;;;;;5026179;28;20049;-73
2022/06/14 03:52:53;;;;;;;19.20;16.23;;;5.90;99.90;;;;;;5019025;28;20049;-71
2022/06/14 03:55:50;;;;;;;17.67;15.98;;;5.90;99.90;;;;;;5023744;28;20464;-72
2022/06/14 03:58:47;;;;;;;18.35;16.58;;;6.00;99.90;;;;;;5025109;28;20053;-72
2022/06/14 04:01:22;;;;;;;18.27;16.80;;;5.90;99.90;;;;;;5005314;28;20125;-72
2022/06/14 04:04:22;;;;;;;18.17;16.80;;;6.00;99.90;;;;;;5009125;28;20247;-72
2022/06/14 04:07:04;;;;;;;18.35;16.75;;;5.90;99.90;;;;;;5024212;28;20065;-72
2022/06/14 04:09:40;;;;;;;18.95;17.33;;;6.20;99.90;;;;;;5017326;28;20037;-73
2022/06/14 04:12:21;;;;;;;18.42;16.63;;;6.30;99.90;;;;;;5025911;28;20111;-72
2022/06/14 04:15:10;;;;;;;17.80;16.58;;;6.40;99.90;;;;;;5023945;28;20140;-73
2022/06/14 04:18:34;;;;;;;19.05;17.42;;;6.50;99.90;;;;;;5025220;28;20072;-72
2022/06/14 04:21:08;;;;;;;18.30;16.35;;;6.40;99.90;;;;;;5023594;28;20061;-72
2022/06/14 04:23:47;;;;;;;18.95;17.40;;;6.50;99.90;;;;;;5016202;28;20543;-72
2022/06/14 04:26:49;;;;;;;18.00;16.63;;;6.40;99.90;;;;;;5027540;28;20049;-72
2022/06/14 04:29:44;;;;;;;17.92;16.52;;;6.60;99.90;;;;;;5015527;28;20807;-73
2022/06/14 04:32:29;;;;;;;19.20;17.08;;;6.70;99.90;;;;;;5023901;28;20046;-72
2022/06/14 04:35:15;;;;;;;19.33;17.40;;;6.90;99.90;;;;;;5012826;28;20420;-72
2022/06/14 04:37:54;;;;;;;18.17;16.65;;;7.10;99.90;;;;;;5023580;28;20179;-72
2022/06/14 04:40:26;;;;;;;19.65;17.73;;;7.10;99.90;;;;;;5006817;28;20527;-73
2022/06/14 04:43:14;;;;;;;21.30;19.13;;;7.00;99.90;;;;;;5019745;28;20073;-73
2022/06/14 04:45:58;;;;;;;19.30;17.50;;;7.20;99.90;;;;;;5023169;28;20598;-73
2022/06/14 04:48:36;;;;;;;17.90;16.25;;;7.10;99.90;;;;;;5022802;28;20107;-72
2022/06/14 04:51:29;;;;;;;18.30;16.60;;;7.20;99.90;;;;;;5022951;28;20045;-72
2022/06/14 04:54:15;;;;;;;18.38;16.80;;;7.30;99.90;;;;;;5014893;28;20053;-72
2022/06/14 04:56:57;;;;;;;20.05;17.63;;;7.40;99.90;;;;;;5021438;28;20578;-72
2022/06/14 04:59:39;;;;;;;18.95;17.55;;;7.50;99.90;;;;;;5011634;28;20057;-73
2022/06/14 05:02:18;;;;;;;19.35;17.52;;;7.50;99.90;;;;;;5002305;28;20050;-73
2022/06/14 05:04:59;;;;;;;19.08;17.13;;;7.50;99.90;;;;;;5004183;28;20054;-72
2022/06/14 05:07:29;;;;;;;19.05;17.30;;;7.60;99.90;;;;;;5018117;28;20067;-73
2022/06/14 05:10:06;;;;;;;19.65;17.98;;;7.80;99.90;;;;;;5015318;28;20088;-72
2022/06/14 05:13:00;;;;;;;20.02;18.50;;;7.80;99.90;;;;;;5022865;28;20622;-72
2022/06/14 05:15:34;;;;;;;20.17;18.60;;;7.90;99.90;;;;;;5022230;28;20041;-71
2022/06/14 05:18:06;;;;;;;21.27;19.38;;;8.00;99.90;;;;;;5022524;28;20092;-73
2022/06/14 05:20:43;;;;;;;21.00;19.20;;;8.20;99.90;;;;;;5022796;28;20107;-72
2022/06/14 05:23:29;;;;;;;21.30;19.63;;;8.50;99.90;;;;;;5011206;28;20361;-72
2022/06/14 05:26:17;;;;;;;22.52;20.27;;;8.60;99.90;;;;;;5020369;28;20150;-72
2022/06/14 05:29:06;;;;;;;21.33;19.63;;;8.90;99.90;;;;;;5032230;28;20657;-72
2022/06/14 05:31:39;;;;;;;21.50;19.85;;;9.00;99.90;;;;;;5004708;28;20049;-72
2022/06/14 05:34:43;;;;;;;21.45;19.83;;;9.00;99.90;;;;;;4989507;28;20520;-73
2022/06/14 05:37:30;;;;;;;21.42;19.77;;;9.30;99.90;;;;;;5002523;28;20073;-72
2022/06/14 05:40:05;;;;;;;21.15;19.50;;;9.40;99.90;;;;;;5004667;28;20054;-73
2022/06/14 05:42:39;;;;;;;20.83;19.17;;;9.60;99.90;;;;;;5024912;28;20496;-71
2022/06/14 05:45:09;;;;;;;20.67;18.98;;;9.70;99.90;;;;;;5024313;28;20174;-72
2022/06/14 05:47:48;;;;;;;20.70;18.98;;;9.70;99.90;;;;;;5043093;28;20109;-73
2022/06/14 05:50:23;;;;;;;22.35;20.27;;;9.90;99.90;;;;;;5042992;28;20473;-72
2022/06/14 05:52:56;;;;;;;23.17;21.00;;;10.20;99.90;;;;;;5023993;28;20405;-72
2022/06/14 05:55:40;;;;;;;23.17;20.90;;;10.60;99.90;;;;;;5024931;28;20438;-72
2022/06/14 05:58:39;;;;;;;24.33;22.20;;;10.80;99.90;;;;;;5034530;28;20106;-72
2022/06/14 06:01:18;;;;;;;25.15;23.00;;;11.10;99.90;;;;;;5017374;28;20050;-72
2022/06/14 06:03:54;;;;;;;25.27;23.15;;;11.50;99.90;;;;;;5004692;28;20407;-72
2022/06/14 06:06:45;;;;;;;24.90;22.88;;;11.90;99.90;;;;;;5008214;28;20049;-73
2022/06/14 06:09:21;;;;;;;26.48;24.17;;;12.10;99.90;;;;;;4995572;28;20056;-74
2022/06/14 06:11:53;;;;;;;27.70;25.40;;;12.10;99.90;;;;;;5005126;28;20598;-73
2022/06/14 06:14:32;;;;;;;25.77;23.98;;;12.40;99.90;;;;;;5043546;28;20451;-73
2022/06/14 06:17:15;;;;;;;26.55;24.27;;;12.90;99.90;;;;;;4993550;28;20098;-73
2022/06/14 06:20:15;;;;;;;26.27;24.27;;;13.20;99.90;;;;;;5017419;28;20454;-73
2022/06/14 06:22:48;;;;;;;27.88;25.42;;;13.60;99.90;;;;;;5042286;28;20045;-74
2022/06/14 06:25:23;;;;;;;27.90;25.63;;;13.60;99.90;;;;;;5022513;28;20052;-73
2022/06/14 06:28:00;;;;;;;;;;;13.90;99.90;;;;;;5015197;28;20069;-70
2022/06/14 06:30:32;;;;;;;28.52;25.90;;;14.20;99.90;;;;;;5007792;28;19961;-71
2022/06/14 06:32:59;;;;;;;29.48;26.80;;;14.40;99.90;;;;;;5010961;28;20046;-72
2022/06/14 06:35:51;;;;;;;29.13;27.02;;;14.60;99.90;;;;;;5022168;28;20049;-72
2022/06/14 06:38:35;;;;;;;29.65;27.00;;;14.90;99.90;;;;;;5022847;28;20187;-72
2022/06/14 06:41:49;;;;;;;29.60;27.38;;;15.30;99.90;;;;;;5002481;28;20053;-72
2022/06/14 06:44:26;;;;;;;29.67;27.33;;;15.60;99.90;;;;;;5029298;28;20100;-72
2022/06/14 06:47:19;;;;;;;31.38;28.50;;;15.60;99.90;;;;;;5036377;28;20065;-72
2022/06/14 06:49:56;;;;;;;29.60;27.60;;;15.80;99.90;;;;;;4981844;28;20057;-72
2022/06/14 06:52:33;;;;;;;27.90;25.80;;;15.90;99.90;;;;;;5003109;28;20061;-71
2022/06/14 06:55:07;;;;;;;28.90;26.65;;;16.20;99.90;;;;;;5016977;28;20127;-72
2022/06/14 06:57:38;;;;;;;28.75;26.20;;;16.50;99.90;;;;;;5039357;28;20049;-71
2022/06/14 07:00:07;;;;;;;28.98;26.42;;;16.70;99.90;;;;;;5035138;28;20056;-72
2022/06/14 07:02:43;;;;;;;28.50;26.40;;;16.70;99.90;;;;;;5039149;28;20088;-72
2022/06/14 07:05:14;;;;;;;28.15;26.02;;;17.00;99.90;;;;;;5021845;28;20077;-73
2022/06/14 07:07:44;;;;;;;28.75;26.23;;;17.20;99.90;;;;;;5007720;28;20045;-72
2022/06/14 07:10:18;;;;;;;28.35;26.00;;;17.10;99.90;;;;;;5023273;28;20049;-73
2022/06/14 07:12:57;;;;;;;27.83;25.63;;;17.00;99.90;;;;;;5022331;28;20452;-72
2022/06/14 07:15:38;;;;;;;27.48;25.25;;;16.90;99.90;;;;;;5022800;28;20044;-72
2022/06/14 07:18:36;;;;;;;29.48;26.92;;;16.90;99.90;;;;;;5021355;28;20436;-72
2022/06/14 07:21:12;;;;;;;27.83;25.77;;;16.80;99.90;;;;;;4999598;28;20054;-72
2022/06/14 07:24:09;;;;;;;28.77;25.98;;;17.20;99.90;;;;;;5012112;28;20042;-73
2022/06/14 07:26:38;;;;;;;27.20;24.90;;;17.50;99.90;;;;;;5021040;28;20057;-72
2022/06/14 07:29:14;;;;;;;26.13;24.33;;;17.40;99.90;;;;;;5010337;28;20385;-73
2022/06/14 07:31:51;;;;;;;26.15;24.35;;;17.50;99.90;;;;;;5017749;28;20060;-72
2022/06/14 07:34:18;;;;;;;25.25;23.00;;;17.80;99.90;;;;;;5036537;28;20308;-72
2022/06/14 07:37:11;;;;;;;25.60;23.52;;;17.70;99.90;;;;;;5003073;28;20578;-73
2022/06/14 07:39:47;;;;;;;25.38;23.50;;;17.70;99.90;;;;;;5012391;28;20049;-70
2022/06/14 07:42:47;;;;;;;26.08;23.80;;;17.60;99.90;;;;;;5020903;28;20603;-73
2022/06/14 07:45:21;;;;;;;26.02;23.67;;;17.30;99.90;;;;;;5022483;28;20072;-72
2022/06/14 07:48:20;;;;;;;26.73;24.40;;;17.20;99.90;;;;;;5022989;28;20053;-72
2022/06/14 07:50:59;;;;;;;27.15;24.80;;;17.10;99.90;;;;;;5005242;28;20049;-72
2022/06/14 07:53:43;;;;;;;27.27;24.75;;;17.10;99.90;;;;;;5006529;28;20050;-73
2022/06/14 07:56:20;;;;;;;27.15;24.83;;;17.20;99.90;;;;;;5010555;28;20546;-72
2022/06/14 07:58:55;;;;;;;26.55;24.13;;;17.70;99.90;;;;;;5015817;28;20034;-73
2022/06/14 08:01:41;;;;;;;25.35;23.38;;;18.10;99.90;;;;;;5021263;28;20069;-73
2022/06/14 08:04:17;;;;;;;25.42;23.52;;;18.30;99.90;;;;;;5018245;28;20067;-73
2022/06/14 08:06:48;;;;;;;24.70;22.80;;;18.60;99.90;;;;;;5022920;28;20484;-72
2022/06/14 08:09:47;;;;;;;23.88;22.15;;;18.50;99.90;;;;;;5024170;28;20060;-72
2022/06/14 08:12:38;;;;;;;23.80;22.08;;;17.90;99.90;;;;;;5016201;28;20057;-72
2022/06/14 08:15:16;;;;;;;24.83;23.02;;;17.60;99.90;;;;;;5012146;28;20053;-72
2022/06/14 08:18:26;;;;;;;26.48;24.15;;;17.40;99.90;;;;;;5023615;28;20041;-73
2022/06/14 08:21:30;;;;;;;25.23;23.08;;;17.10;99.90;;;;;;5024015;28;20580;-73
2022/06/14 08:24:23;;;;;;;25.45;23.05;;;16.90;99.90;;;;;;4982617;28;20058;-73
2022/06/14 08:27:16;;;;;;;25.55;23.35;;;17.50;99.90;;;;;;5006979;28;20056;-75
2022/06/14 08:29:52;;;;;;;25.17;23.02;;;18.10;99.90;;;;;;5013482;28;20531;-73
2022/06/14 08:32:29;;;;;;;23.63;21.52;;;18.90;99.90;;;;;;5013378;28;20129;-72
2022/06/14 08:35:04;;;;;;;24.92;22.88;;;18.60;99.90;;;;;;5037884;28;20068;-73
2022/06/14 08:37:44;;;;;;;24.45;22.52;;;18.20;99.90;;;;;;5023847;28;20053;-73
2022/06/14 08:40:17;;;;;;;24.70;22.83;;;17.80;99.90;;;;;;5023450;28;20423;-71
2022/06/14 08:42:50;;;;;;;25.17;23.27;;;17.50;99.90;;;;;;5006317;28;20084;-73
2022/06/14 08:45:26;;;;;;;25.77;23.52;;;17.40;99.90;;;;;;5010210;28;20050;-72
2022/06/14 08:48:14;;;;;;;24.80;22.73;;;17.60;99.90;;;;;;5003518;28;20283;-72
2022/06/14 08:51:12;;;;;;;25.35;23.30;;;18.10;99.90;;;;;;5005940;28;20463;-73
2022/06/14 08:54:10;;;;;;;26.48;24.02;;;18.40;99.90;;;;;;5023888;28;20415;-72
2022/06/14 08:56:42;;;;;;;25.15;23.25;;;18.60;99.90;;;;;;5022001;28;20373;-72
2022/06/14 08:59:31;;;;;;;25.33;23.58;;;18.70;99.90;;;;;;5017119;28;20531;-73
2022/06/14 09:02:04;;;;;;;25.60;23.60;;;19.00;99.90;;;;;;5012783;28;20100;-73
2022/06/14 09:04:50;;;;;;;25.92;23.88;;;19.20;99.90;;;;;;5016408;28;20061;-73
2022/06/14 09:07:50;;;;;;;25.77;23.92;;;19.60;99.90;;;;;;5038076;28;20480;-72
2022/06/14 09:10:33;;;;;;;25.42;23.23;;;19.80;99.90;;;;;;5024156;28;20389;-73
2022/06/14 09:13:37;;;;;;;25.58;23.55;;;19.80;99.90;;;;;;5006058;28;20042;-73
2022/06/14 09:16:42;;;;;;;25.38;23.30;;;19.40;99.90;;;;;;5023897;28;20263;-73
2022/06/14 09:19:36;;;;;;;27.15;24.73;;;19.20;99.90;;;;;;5024804;28;20053;-72
2022/06/14 09:22:49;;;;;;;25.40;23.75;;;19.30;99.90;;;;;;5023484;28;20111;-72
2022/06/14 09:26:06;;;;;;;24.90;22.45;;;19.60;99.90;;;;;;5023738;28;20114;-73
2022/06/14 09:28:56;;;;;;;24.77;22.75;;;19.70;99.90;;;;;;5017535;28;20307;-73
2022/06/14 09:31:31;;;;;;;24.75;22.65;;;19.50;99.90;;;;;;5046437;28;20190;-73
2022/06/14 09:34:36;;;;;;;24.35;22.63;;;19.00;99.90;;;;;;4997308;28;20041;-72
2022/06/14 09:37:31;;;;;;;25.98;23.80;;;18.50;99.90;;;;;;5002174;28;20512;-73
2022/06/14 09:40:14;;;;;;;26.63;24.52;;;18.20;99.90;;;;;;5015670;28;20499;-72
2022/06/14 09:42:53;;;;;;;26.50;24.48;;;18.00;99.90;;;;;;5022600;28;20079;-73
2022/06/14 09:45:38;;;;;;;27.77;25.17;;;17.70;99.90;;;;;;5021330;28;20220;-74
2022/06/14 09:48:40;;;;;;;26.88;24.70;;;17.90;99.90;;;;;;5022319;28;20049;-72
2022/06/14 09:51:44;;;;;;;27.08;25.13;;;18.60;99.90;;;;;;5023091;28;20476;-73
2022/06/14 09:54:33;;;;;;;26.25;24.40;;;19.00;99.90;;;;;;5022702;28;20052;-74
2022/06/14 09:57:03;;;;;;;25.75;23.45;;;19.40;99.90;;;;;;5017610;28;20210;-74
2022/06/14 09:59:59;;;;;;;27.10;24.67;;;19.60;99.90;;;;;;5009302;28;20054;-74
2022/06/14 10:02:48;;;;;;;27.08;24.70;;;20.20;99.90;;;;;;5005064;28;20049;-72
2022/06/14 10:05:32;;;;;;;24.17;22.35;;;20.00;99.90;;;;;;5019930;28;20261;-72
2022/06/14 10:08:31;;;;;;;24.58;22.65;;;19.80;99.90;;;;;;5014712;28;20050;-75
2022/06/14 10:11:30;;;;;;;26.75;24.75;;;19.70;99.90;;;;;;5020958;28;20519;-73
2022/06/14 10:14:10;;;;;;;28.33;25.83;;;19.70;99.90;;;;;;5016548;28;20045;-74
2022/06/14 10:16:42;;;;;;;26.23;24.10;;;19.80;99.90;;;;;;5012297;28;20511;-73
2022/06/14 10:19:30;;;;;;;26.75;24.38;;;19.80;99.90;;;;;;5002839;28;20467;-73
2022/06/14 10:22:13;;;;;;;27.77;25.73;;;20.00;99.90;;;;;;5002853;28;20046;-74
2022/06/14 10:25:18;;;;;;;27.02;25.17;;;20.30;99.90;;;;;;5010260;28;20049;-74
2022/06/14 10:28:12;;;;;;;26.42;24.10;;;20.20;99.90;;;;;;4996438;28;20128;-75
2022/06/14 10:30:57;;;;;;;26.45;24.52;;;20.00;99.90;;;;;;5017710;28;20092;-73
2022/06/14 10:33:46;;;;;;;26.77;24.13;;;19.50;99.90;;;;;;5015583;28;20057;-74
2022/06/14 10:36:48;;;;;;;27.67;25.20;;;19.90;99.90;;;;;;4999507;28;20056;-73
2022/06/14 10:39:52;;;;;;;26.80;24.80;;;19.70;99.90;;;;;;5011626;28;20046;-73
2022/06/14 10:42:41;;;;;;;25.38;23.38;;;20.10;99.90;;;;;;5023972;28;20042;-74
2022/06/14 10:45:17;;;;;;;26.65;24.35;;;19.90;99.90;;;;;;5025373;28;20045;-73
2022/06/14 10:48:17;;;;;;;27.27;25.05;;;20.00;99.90;;;;;;5022739;28;20049;-73
2022/06/14 10:51:24;;;;;;;26.85;24.55;;;20.10;99.90;;;;;;4992275;28;20144;-73
2022/06/14 10:54:24;;;;;;;25.90;23.73;;;20.10;99.90;;;;;;5039705;28;20053;-73
2022/06/14 10:57:37;;;;;;;27.83;25.52;;;20.30;99.90;;;;;;5033156;28;20120;-73
2022/06/14 11:00:13;;;;;;;28.83;26.30;;;20.20;99.90;;;;;;5007429;28;20056;-74
2022/06/14 11:03:14;;;;;;;27.20;25.08;;;20.20;99.90;;;;;;5015889;28;20037;-74
2022/06/14 11:06:06;;;;;;;28.13;25.85;;;20.60;99.90;;;;;;5006022;28;20284;-74
2022/06/14 11:08:56;;;;;;;27.23;25.02;;;20.60;99.90;;;;;;5009738;28;20065;-73
2022/06/14 11:11:34;;;;;;;26.95;25.00;;;20.70;99.90;;;;;;5005106;28;20132;-73
2022/06/14 11:14:27;;;;;;;27.63;25.75;;;20.70;99.90;;;;;;5007416;28;20049;-73
2022/06/14 11:17:27;;;;;;;27.50;25.45;;;20.60;99.90;;;;;;5004642;28;20065;-74
2022/06/14 11:20:18;;;;;;;27.35;25.35;;;20.70;99.90;;;;;;5005148;28;20153;-74
2022/06/14 11:22:58;;;;;;;27.20;25.13;;;20.70;99.90;;;;;;5003488;28;20054;-74
2022/06/14 11:25:36;;;;;;;27.33;25.08;;;21.10;99.90;;;;;;4985952;28;20140;-74
2022/06/14 11:28:59;;;;;;;28.10;26.02;;;21.40;99.90;;;;;;5012201;28;20042;-73
2022/06/14 11:31:58;;;;;;;27.75;25.63;;;21.00;99.90;;;;;;4941043;28;20911;-74
2022/06/14 11:34:28;;;;;;;28.60;26.38;;;21.10;99.90;;;;;;5013838;28;20041;-74
2022/06/14 11:37:27;;;;;;;27.05;25.10;;;21.00;99.90;;;;;;5025147;28;20045;-74
2022/06/14 11:40:14;;;;;;;28.30;26.08;;;21.10;99.90;;;;;;5036186;28;20871;-74
2022/06/14 11:42:50;;;;;;;28.55;26.23;;;21.30;99.90;;;;;;5004966;28;20359;-73
2022/06/14 11:45:17;;;;;;;29.83;27.60;;;20.80;99.90;;;;;;5008700;28;20152;-73
2022/06/14 11:47:56;;;;;;;28.20;26.10;;;21.00;99.90;;;;;;5026719;28;20119;-73
2022/06/14 11:50:34;;;;;;;27.60;25.80;;;20.90;99.90;;;;;;5040551;28;20103;-74
2022/06/14 11:53:26;;;;;;;28.85;26.27;;;21.20;99.90;;;;;;5032672;28;20038;-73
2022/06/14 11:56:21;;;;;;;29.50;26.77;;;21.40;99.90;;;;;;5007336;28;20360;-73
2022/06/14 11:58:57;;;;;;;;;;;21.20;99.90;;;;;;5017109;28;20054;-73
2022/06/14 12:01:57;;;;;;;27.83;25.65;;;20.70;99.90;;;;;;5030660;28;19921;-73
2022/06/14 12:04:26;;;;;;;29.98;27.17;;;20.10;99.90;;;;;;4988417;28;20078;-74
2022/06/14 12:07:12;;;;;;;28.63;26.40;;;19.50;99.90;;;;;;5006657;28;20496;-73
2022/06/14 12:09:42;;;;;;;;;;;19.20;99.90;;;;;;5003254;28;20412;-74
2022/06/14 12:12:27;;;;;;;27.55;25.27;;;19.30;99.90;;;;;;5028299;28;19995;-73
2022/06/14 12:15:07;;;;;;;28.35;25.73;;;20.10;99.90;;;;;;5020910;28;20045;-73
2022/06/14 12:17:41;;;;;;;29.27;27.00;;;20.80;99.90;;;;;;5015610;28;20516;-73
2022/06/14 12:20:10;;;;;;;27.52;25.25;;;21.20;99.90;;;;;;5025557;28;20045;-74
2022/06/14 12:22:39;;;;;;;28.65;26.45;;;21.00;99.90;;;;;;5044419;28;20111;-73
2022/06/14 12:28:17;;;;;;;27.38;25.30;;;21.30;99.90;;;;;;5000847;28;20042;-73
2022/06/14 12:30:48;;;;;;;27.05;25.15;;;21.30;99.90;;;;;;5062073;22;20060;-74
2022/06/14 12:33:50;;;;;;;28.33;26.33;;;21.00;99.90;;;;;;5022612;28;20057;-74
2022/06/14 12:36:38;;;;;;;28.17;25.90;;;20.60;99.90;;;;;;5040813;28;20065;-74
2022/06/14 12:39:13;;;;;;;27.88;25.85;;;21.10;99.90;;;;;;5040666;28;20092;-74
2022/06/14 12:41:54;;;;;;;28.42;26.52;;;21.30;99.90;;;;;;5042423;28;20122;-75
2022/06/14 12:44:55;;;;;;;29.23;26.80;;;21.50;99.90;;;;;;5044587;28;20123;-73
2022/06/14 12:47:36;;;;;;;28.75;26.55;;;21.70;99.90;;;;;;5023144;28;20136;-73
2022/06/14 12:50:17;;;;;;;29.48;27.58;;;21.60;99.90;;;;;;5027296;28;20130;-73
2022/06/14 12:52:49;;;;;;;29.17;27.20;;;21.30;99.90;;;;;;5026159;28;20045;-73
2022/06/14 12:55:18;;;;;;;27.73;25.90;;;21.30;99.90;;;;;;5043896;28;20519;-73
2022/06/14 12:58:09;;;;;;;29.42;27.33;;;21.70;99.90;;;;;;5046498;28;20160;-74
2022/06/14 13:00:50;;;;;;;28.65;26.55;;;21.80;99.90;;;;;;5043120;28;20376;-74
2022/06/14 13:03:27;;;;;;;29.98;27.73;;;22.00;99.90;;;;;;5026723;28;20049;-72
2022/06/14 13:06:12;;;;;;;28.10;26.17;;;22.00;99.90;;;;;;5042101;28;20052;-72
2022/06/14 13:09:00;;;;;;;29.08;26.90;;;21.90;99.90;;;;;;5008956;28;20049;-72
2022/06/14 13:11:36;;;;;;;28.60;26.65;;;21.80;99.90;;;;;;5025949;28;20090;-73
2022/06/14 13:14:15;;;;;;;28.25;25.92;;;21.90;99.90;;;;;;5039555;28;20452;-72
2022/06/14 13:16:59;;;;;;;29.50;27.38;;;22.00;99.90;;;;;;5024833;28;20267;-73
2022/06/14 13:19:52;;;;;;;30.40;28.15;;;22.20;99.90;;;;;;5025790;28;20045;-71
2022/06/14 13:22:37;;;;;;;29.45;27.50;;;22.50;99.90;;;;;;5030829;28;20601;-72
2022/06/14 13:25:32;;;;;;;30.13;27.80;;;22.60;99.90;;;;;;5043168;28;20114;-71
2022/06/14 13:28:09;;;;;;;29.53;27.40;;;22.30;99.90;;;;;;5044864;28;20434;-71
2022/06/14 13:30:50;;;;;;;31.08;28.63;;;22.00;99.90;;;;;;5043152;28;20416;-72
2022/06/14 13:33:42;;;;;;;31.80;29.33;;;22.10;99.90;;;;;;5025562;28;20045;-72
2022/06/14 13:36:24;;;;;;;31.40;29.08;;;21.10;99.90;;;;;;5024298;28;20438;-73
2022/06/14 13:39:12;;;;;;;30.95;28.52;;;21.20;99.90;;;;;;5028594;28;20320;-72
2022/06/14 13:42:03;;;;;;;30.52;28.20;;;21.00;99.90;;;;;;5042759;28;20048;-72
2022/06/14 13:44:53;;;;;;;30.10;28.00;;;21.00;99.90;;;;;;5060815;28;20518;-72
2022/06/14 13:47:33;;;;;;;30.05;28.02;;;21.30;99.90;;;;;;5027441;28;20112;-73
2022/06/14 13:50:05;;;;;;;31.17;28.98;;;21.80;99.90;;;;;;5032203;28;20324;-71
2022/06/14 13:52:45;;;;;;;30.83;28.80;;;22.00;99.90;;;;;;5025227;28;20041;-71
2022/06/14 13:55:37;;;;;;;30.17;28.00;;;21.90;99.90;;;;;;5026036;28;20048;-71
2022/06/14 13:58:12;;;;;;;29.50;27.55;;;21.90;99.90;;;;;;5037105;28;20092;-71